sensor_id;sensor_type;location;lat;lon;timestamp;temperature;humidity
63013;DHT22;62113;45.624;11.700;2023-08-30T00:00:17;21.30;72.10
63013;DHT22;62113;45.624;11.700;2023-08-30T00:02:46;21.20;72.30
63013;DHT22;62113;45.624;11.700;2023-08-30T00:05:12;21.30;71.90
63013;DHT22;62113;45.624;11.700;2023-08-30T00:07:38;21.30;72.10
63013;DHT22;62113;45.624;11.700;2023-08-30T00:10:04;21.20;72.10
63013;DHT22;62113;45.624;11.700;2023-08-30T00:12:30;21.20;72.10
63013;DHT22;62113;45.624;11.700;2023-08-30T00:14:56;21.20;72.00
63013;DHT22;62113;45.624;11.700;2023-08-30T00:17:22;21.20;71.90
63013;DHT22;62113;45.624;11.700;2023-08-30T00:19:48;21.20;71.80
63013;DHT22;62113;45.624;11.700;2023-08-30T00:22:14;21.20;71.80
63013;DHT22;62113;45.624;11.700;2023-08-30T00:24:40;21.20;71.80
63013;DHT22;62113;45.624;11.700;2023-08-30T00:27:05;21.20;71.90
63013;DHT22;62113;45.624;11.700;2023-08-30T00:29:31;21.20;72.00
63013;DHT22;62113;45.624;11.700;2023-08-30T00:31:57;21.20;71.80
63013;DHT22;62113;45.624;11.700;2023-08-30T00:34:22;21.20;71.60
63013;DHT22;62113;45.624;11.700;2023-08-30T00:36:48;21.10;71.70
63013;DHT22;62113;45.624;11.700;2023-08-30T00:39:14;21.10;71.80
63013;DHT22;62113;45.624;11.700;2023-08-30T00:41:40;21.10;71.80
63013;DHT22;62113;45.624;11.700;2023-08-30T00:44:05;21.10;71.90
63013;DHT22;62113;45.624;11.700;2023-08-30T00:46:32;21.10;72.00
63013;DHT22;62113;45.624;11.700;2023-08-30T00:48:59;21.20;72.10
63013;DHT22;62113;45.624;11.700;2023-08-30T00:51:26;21.20;72.00
63013;DHT22;62113;45.624;11.700;2023-08-30T00:53:53;21.20;72.00
63013;DHT22;62113;45.624;11.700;2023-08-30T00:56:19;21.20;72.10
63013;DHT22;62113;45.624;11.700;2023-08-30T00:58:45;21.20;72.10
63013;DHT22;62113;45.624;11.700;2023-08-30T01:01:12;21.20;72.30
63013;DHT22;62113;45.624;11.700;2023-08-30T01:03:39;21.20;72.40
63013;DHT22;62113;45.624;11.700;2023-08-30T01:06:05;21.20;72.50
63013;DHT22;62113;45.624;11.700;2023-08-30T01:08:30;21.20;72.50
63013;DHT22;62113;45.624;11.700;2023-08-30T01:13:21;21.20;72.60
63013;DHT22;62113;45.624;11.700;2023-08-30T01:15:47;21.20;72.50
63013;DHT22;62113;45.624;11.700;2023-08-30T01:18:17;21.20;72.40
63013;DHT22;62113;45.624;11.700;2023-08-30T01:20:45;21.20;72.50
63013;DHT22;62113;45.624;11.700;2023-08-30T01:25:57;21.20;72.50
63013;DHT22;62113;45.624;11.700;2023-08-30T01:28:30;21.20;72.40
63013;DHT22;62113;45.624;11.700;2023-08-30T01:30:58;21.20;72.20
63013;DHT22;62113;45.624;11.700;2023-08-30T01:33:24;21.10;72.30
63013;DHT22;62113;45.624;11.700;2023-08-30T01:35:57;21.10;72.50
63013;DHT22;62113;45.624;11.700;2023-08-30T01:38:25;21.10;72.60
63013;DHT22;62113;45.624;11.700;2023-08-30T01:40:52;21.10;72.70
63013;DHT22;62113;45.624;11.700;2023-08-30T01:43:18;21.10;72.80
63013;DHT22;62113;45.624;11.700;2023-08-30T01:45:44;21.10;72.70
63013;DHT22;62113;45.624;11.700;2023-08-30T01:48:13;21.00;72.60
63013;DHT22;62113;45.624;11.700;2023-08-30T01:50:40;21.00;72.80
63013;DHT22;62113;45.624;11.700;2023-08-30T01:53:06;20.90;73.20
63013;DHT22;62113;45.624;11.700;2023-08-30T01:55:33;20.80;73.00
63013;DHT22;62113;45.624;11.700;2023-08-30T01:57:59;20.80;73.00
63013;DHT22;62113;45.624;11.700;2023-08-30T02:00:24;20.70;73.60
63013;DHT22;62113;45.624;11.700;2023-08-30T02:02:50;20.70;73.10
63013;DHT22;62113;45.624;11.700;2023-08-30T02:05:16;20.70;73.20
63013;DHT22;62113;45.624;11.700;2023-08-30T02:10:29;20.70;73.30
63013;DHT22;62113;45.624;11.700;2023-08-30T02:12:57;20.80;73.30
63013;DHT22;62113;45.624;11.700;2023-08-30T02:15:25;20.70;73.40
63013;DHT22;62113;45.624;11.700;2023-08-30T02:17:52;20.80;73.40
63013;DHT22;62113;45.624;11.700;2023-08-30T02:20:18;20.80;73.30
63013;DHT22;62113;45.624;11.700;2023-08-30T02:22:44;20.90;73.20
63013;DHT22;62113;45.624;11.700;2023-08-30T02:25:10;20.80;73.20
63013;DHT22;62113;45.624;11.700;2023-08-30T02:27:36;20.80;73.40
63013;DHT22;62113;45.624;11.700;2023-08-30T02:30:02;20.80;73.30
63013;DHT22;62113;45.624;11.700;2023-08-30T02:32:28;20.80;73.40
63013;DHT22;62113;45.624;11.700;2023-08-30T02:34:55;20.80;73.50
63013;DHT22;62113;45.624;11.700;2023-08-30T02:37:21;20.80;73.40
63013;DHT22;62113;45.624;11.700;2023-08-30T02:39:47;20.80;73.40
63013;DHT22;62113;45.624;11.700;2023-08-30T02:42:12;20.80;73.50
63013;DHT22;62113;45.624;11.700;2023-08-30T02:44:38;20.80;73.50
63013;DHT22;62113;45.624;11.700;2023-08-30T02:47:03;20.80;73.50
63013;DHT22;62113;45.624;11.700;2023-08-30T02:49:29;20.70;73.50
63013;DHT22;62113;45.624;11.700;2023-08-30T02:51:55;20.80;73.60
63013;DHT22;62113;45.624;11.700;2023-08-30T02:54:20;20.70;73.50
63013;DHT22;62113;45.624;11.700;2023-08-30T02:56:47;20.70;73.80
63013;DHT22;62113;45.624;11.700;2023-08-30T02:59:13;20.70;73.70
63013;DHT22;62113;45.624;11.700;2023-08-30T03:01:39;20.70;73.70
63013;DHT22;62113;45.624;11.700;2023-08-30T03:04:05;20.70;73.80
63013;DHT22;62113;45.624;11.700;2023-08-30T03:06:33;20.70;73.80
63013;DHT22;62113;45.624;11.700;2023-08-30T03:08:59;20.70;73.90
63013;DHT22;62113;45.624;11.700;2023-08-30T03:11:25;20.70;74.10
63013;DHT22;62113;45.624;11.700;2023-08-30T03:13:53;20.70;73.90
63013;DHT22;62113;45.624;11.700;2023-08-30T03:16:19;20.70;73.90
63013;DHT22;62113;45.624;11.700;2023-08-30T03:18:44;20.70;73.90
63013;DHT22;62113;45.624;11.700;2023-08-30T03:21:10;20.70;74.10
63013;DHT22;62113;45.624;11.700;2023-08-30T03:23:37;20.70;74.00
63013;DHT22;62113;45.624;11.700;2023-08-30T03:26:09;20.70;74.00
63013;DHT22;62113;45.624;11.700;2023-08-30T03:28:36;20.70;74.00
63013;DHT22;62113;45.624;11.700;2023-08-30T03:31:01;20.70;74.10
63013;DHT22;62113;45.624;11.700;2023-08-30T03:33:27;20.70;74.10
63013;DHT22;62113;45.624;11.700;2023-08-30T03:35:53;20.80;74.20
63013;DHT22;62113;45.624;11.700;2023-08-30T03:38:18;20.70;74.20
63013;DHT22;62113;45.624;11.700;2023-08-30T03:40:44;20.80;74.20
63013;DHT22;62113;45.624;11.700;2023-08-30T03:43:10;20.70;74.20
63013;DHT22;62113;45.624;11.700;2023-08-30T03:45:36;20.70;74.10
63013;DHT22;62113;45.624;11.700;2023-08-30T03:48:03;20.70;74.10
63013;DHT22;62113;45.624;11.700;2023-08-30T03:50:29;20.70;74.10
63013;DHT22;62113;45.624;11.700;2023-08-30T03:52:54;20.70;74.10
63013;DHT22;62113;45.624;11.700;2023-08-30T03:55:20;20.70;74.20
63013;DHT22;62113;45.624;11.700;2023-08-30T03:57:46;20.70;74.40
63013;DHT22;62113;45.624;11.700;2023-08-30T04:00:12;20.80;74.40
63013;DHT22;62113;45.624;11.700;2023-08-30T04:02:37;20.70;74.30
63013;DHT22;62113;45.624;11.700;2023-08-30T04:05:03;20.70;74.30
63013;DHT22;62113;45.624;11.700;2023-08-30T04:07:33;20.80;74.30
63013;DHT22;62113;45.624;11.700;2023-08-30T04:09:59;20.80;74.40
63013;DHT22;62113;45.624;11.700;2023-08-30T04:12:25;20.70;74.40
63013;DHT22;62113;45.624;11.700;2023-08-30T04:14:50;20.80;74.50
63013;DHT22;62113;45.624;11.700;2023-08-30T04:17:16;20.70;74.40
63013;DHT22;62113;45.624;11.700;2023-08-30T04:19:41;20.70;74.40
63013;DHT22;62113;45.624;11.700;2023-08-30T04:22:07;20.70;74.40
63013;DHT22;62113;45.624;11.700;2023-08-30T04:24:32;20.70;74.40
63013;DHT22;62113;45.624;11.700;2023-08-30T04:26:58;20.70;74.40
63013;DHT22;62113;45.624;11.700;2023-08-30T04:29:23;20.70;74.40
63013;DHT22;62113;45.624;11.700;2023-08-30T04:31:49;20.70;74.30
63013;DHT22;62113;45.624;11.700;2023-08-30T04:34:15;20.70;74.30
63013;DHT22;62113;45.624;11.700;2023-08-30T04:36:41;20.70;74.20
63013;DHT22;62113;45.624;11.700;2023-08-30T04:39:07;20.70;74.20
63013;DHT22;62113;45.624;11.700;2023-08-30T04:41:32;20.70;74.20
63013;DHT22;62113;45.624;11.700;2023-08-30T04:43:59;20.70;74.20
63013;DHT22;62113;45.624;11.700;2023-08-30T04:46:24;20.70;74.20
63013;DHT22;62113;45.624;11.700;2023-08-30T04:48:50;20.70;74.30
63013;DHT22;62113;45.624;11.700;2023-08-30T04:51:15;20.70;74.30
63013;DHT22;62113;45.624;11.700;2023-08-30T04:53:41;20.70;74.30
63013;DHT22;62113;45.624;11.700;2023-08-30T04:56:14;20.70;74.40
63013;DHT22;62113;45.624;11.700;2023-08-30T04:58:40;20.70;74.30
63013;DHT22;62113;45.624;11.700;2023-08-30T05:01:06;20.70;74.30
63013;DHT22;62113;45.624;11.700;2023-08-30T05:03:32;20.70;74.40
63013;DHT22;62113;45.624;11.700;2023-08-30T05:05:58;20.70;74.30
63013;DHT22;62113;45.624;11.700;2023-08-30T05:08:24;20.70;74.30
63013;DHT22;62113;45.624;11.700;2023-08-30T05:10:49;20.70;74.40
63013;DHT22;62113;45.624;11.700;2023-08-30T05:13:16;20.70;74.50
63013;DHT22;62113;45.624;11.700;2023-08-30T05:15:41;20.70;74.50
63013;DHT22;62113;45.624;11.700;2023-08-30T05:18:07;20.70;74.60
63013;DHT22;62113;45.624;11.700;2023-08-30T05:20:33;20.80;74.50
63013;DHT22;62113;45.624;11.700;2023-08-30T05:22:58;20.80;74.50
63013;DHT22;62113;45.624;11.700;2023-08-30T05:25:24;20.80;74.50
63013;DHT22;62113;45.624;11.700;2023-08-30T05:27:50;20.80;74.60
63013;DHT22;62113;45.624;11.700;2023-08-30T05:30:15;20.90;74.50
63013;DHT22;62113;45.624;11.700;2023-08-30T05:32:41;20.90;74.50
63013;DHT22;62113;45.624;11.700;2023-08-30T05:35:07;20.90;74.40
63013;DHT22;62113;45.624;11.700;2023-08-30T05:37:33;20.90;74.60
63013;DHT22;62113;45.624;11.700;2023-08-30T05:39:59;21.00;74.50
63013;DHT22;62113;45.624;11.700;2023-08-30T05:42:24;20.90;74.50
63013;DHT22;62113;45.624;11.700;2023-08-30T05:44:50;20.90;74.50
63013;DHT22;62113;45.624;11.700;2023-08-30T05:47:15;21.00;74.50
63013;DHT22;62113;45.624;11.700;2023-08-30T05:49:42;21.00;74.40
63013;DHT22;62113;45.624;11.700;2023-08-30T05:52:07;21.00;74.50
63013;DHT22;62113;45.624;11.700;2023-08-30T05:54:33;21.00;74.40
63013;DHT22;62113;45.624;11.700;2023-08-30T05:56:59;21.10;74.50
63013;DHT22;62113;45.624;11.700;2023-08-30T05:59:25;21.10;74.40
63013;DHT22;62113;45.624;11.700;2023-08-30T06:01:51;21.10;74.60
63013;DHT22;62113;45.624;11.700;2023-08-30T06:04:16;21.10;74.70
63013;DHT22;62113;45.624;11.700;2023-08-30T06:06:42;21.10;74.90
63013;DHT22;62113;45.624;11.700;2023-08-30T06:09:07;21.20;74.70
63013;DHT22;62113;45.624;11.700;2023-08-30T06:11:33;21.20;74.60
63013;DHT22;62113;45.624;11.700;2023-08-30T06:13:59;21.20;74.40
63013;DHT22;62113;45.624;11.700;2023-08-30T06:16:25;21.20;74.80
63013;DHT22;62113;45.624;11.700;2023-08-30T06:18:50;21.20;74.50
63013;DHT22;62113;45.624;11.700;2023-08-30T06:21:16;21.20;74.60
63013;DHT22;62113;45.624;11.700;2023-08-30T06:23:42;21.20;74.70
63013;DHT22;62113;45.624;11.700;2023-08-30T06:26:08;21.10;74.40
63013;DHT22;62113;45.624;11.700;2023-08-30T06:28:33;21.10;74.50
63013;DHT22;62113;45.624;11.700;2023-08-30T06:30:59;21.00;74.80
63013;DHT22;62113;45.624;11.700;2023-08-30T06:33:24;21.00;74.70
63013;DHT22;62113;45.624;11.700;2023-08-30T06:35:50;21.10;74.80
63013;DHT22;62113;45.624;11.700;2023-08-30T06:38:16;21.10;74.70
63013;DHT22;62113;45.624;11.700;2023-08-30T06:40:45;21.10;75.00
63013;DHT22;62113;45.624;11.700;2023-08-30T06:43:12;21.20;75.00
63013;DHT22;62113;45.624;11.700;2023-08-30T06:45:38;21.20;74.40
63013;DHT22;62113;45.624;11.700;2023-08-30T06:48:06;21.20;74.40
63013;DHT22;62113;45.624;11.700;2023-08-30T06:50:32;21.20;74.50
63013;DHT22;62113;45.624;11.700;2023-08-30T06:52:58;21.20;74.30
63013;DHT22;62113;45.624;11.700;2023-08-30T06:55:24;21.20;74.10
63013;DHT22;62113;45.624;11.700;2023-08-30T06:57:49;21.20;74.00
63013;DHT22;62113;45.624;11.700;2023-08-30T07:00:16;21.20;74.10
63013;DHT22;62113;45.624;11.700;2023-08-30T07:02:41;21.20;74.60
63013;DHT22;62113;45.624;11.700;2023-08-30T07:05:11;21.20;74.30
63013;DHT22;62113;45.624;11.700;2023-08-30T07:07:37;21.20;74.50
63013;DHT22;62113;45.624;11.700;2023-08-30T07:10:02;21.30;74.60
63013;DHT22;62113;45.624;11.700;2023-08-30T07:12:28;21.40;73.80
63013;DHT22;62113;45.624;11.700;2023-08-30T07:14:54;21.50;74.90
63013;DHT22;62113;45.624;11.700;2023-08-30T07:17:20;21.80;74.10
63013;DHT22;62113;45.624;11.700;2023-08-30T07:19:45;22.00;73.50
63013;DHT22;62113;45.624;11.700;2023-08-30T07:22:11;22.10;73.10
63013;DHT22;62113;45.624;11.700;2023-08-30T07:24:37;22.10;72.70
63013;DHT22;62113;45.624;11.700;2023-08-30T07:27:03;22.10;72.80
63013;DHT22;62113;45.624;11.700;2023-08-30T07:29:28;22.10;72.70
63013;DHT22;62113;45.624;11.700;2023-08-30T07:31:54;22.10;72.80
63013;DHT22;62113;45.624;11.700;2023-08-30T07:34:20;22.10;72.60
63013;DHT22;62113;45.624;11.700;2023-08-30T07:36:46;22.10;72.50
63013;DHT22;62113;45.624;11.700;2023-08-30T07:39:12;22.00;72.50
63013;DHT22;62113;45.624;11.700;2023-08-30T07:41:38;22.10;72.70
63013;DHT22;62113;45.624;11.700;2023-08-30T07:44:03;22.10;71.30
63013;DHT22;62113;45.624;11.700;2023-08-30T07:46:29;22.00;71.10
63013;DHT22;62113;45.624;11.700;2023-08-30T07:48:55;22.00;71.70
63013;DHT22;62113;45.624;11.700;2023-08-30T07:51:21;22.00;71.80
63013;DHT22;62113;45.624;11.700;2023-08-30T07:53:47;22.00;69.30
63013;DHT22;62113;45.624;11.700;2023-08-30T07:56:12;22.10;70.90
63013;DHT22;62113;45.624;11.700;2023-08-30T07:58:40;22.10;70.80
63013;DHT22;62113;45.624;11.700;2023-08-30T08:01:07;22.00;71.00
63013;DHT22;62113;45.624;11.700;2023-08-30T08:03:33;22.10;71.10
63013;DHT22;62113;45.624;11.700;2023-08-30T08:05:59;22.20;71.00
63013;DHT22;62113;45.624;11.700;2023-08-30T08:08:25;22.20;71.10
63013;DHT22;62113;45.624;11.700;2023-08-30T08:10:51;22.20;71.10
63013;DHT22;62113;45.624;11.700;2023-08-30T08:13:17;22.20;71.00
63013;DHT22;62113;45.624;11.700;2023-08-30T08:15:43;22.20;70.90
63013;DHT22;62113;45.624;11.700;2023-08-30T08:18:09;22.20;71.10
63013;DHT22;62113;45.624;11.700;2023-08-30T08:20:35;22.20;71.20
63013;DHT22;62113;45.624;11.700;2023-08-30T08:23:02;22.20;71.70
63013;DHT22;62113;45.624;11.700;2023-08-30T08:25:28;22.20;71.50
63013;DHT22;62113;45.624;11.700;2023-08-30T08:27:54;22.20;71.60
63013;DHT22;62113;45.624;11.700;2023-08-30T08:30:20;22.20;71.30
63013;DHT22;62113;45.624;11.700;2023-08-30T08:32:46;22.20;71.20
63013;DHT22;62113;45.624;11.700;2023-08-30T08:35:15;22.20;71.20
63013;DHT22;62113;45.624;11.700;2023-08-30T08:37:41;22.20;71.50
63013;DHT22;62113;45.624;11.700;2023-08-30T08:40:07;22.10;71.00
63013;DHT22;62113;45.624;11.700;2023-08-30T08:42:36;22.00;69.80
63013;DHT22;62113;45.624;11.700;2023-08-30T08:45:03;21.80;68.70
63013;DHT22;62113;45.624;11.700;2023-08-30T08:47:32;21.70;70.20
63013;DHT22;62113;45.624;11.700;2023-08-30T08:49:59;21.70;70.60
63013;DHT22;62113;45.624;11.700;2023-08-30T08:52:25;21.70;70.90
63013;DHT22;62113;45.624;11.700;2023-08-30T08:54:52;21.70;70.10
63013;DHT22;62113;45.624;11.700;2023-08-30T08:57:18;21.80;69.70
63013;DHT22;62113;45.624;11.700;2023-08-30T08:59:44;21.80;70.10
63013;DHT22;62113;45.624;11.700;2023-08-30T09:02:12;21.80;68.90
63013;DHT22;62113;45.624;11.700;2023-08-30T09:04:39;21.80;69.10
63013;DHT22;62113;45.624;11.700;2023-08-30T09:07:05;21.70;68.90
63013;DHT22;62113;45.624;11.700;2023-08-30T09:09:31;21.80;69.60
63013;DHT22;62113;45.624;11.700;2023-08-30T09:11:56;21.80;68.40
63013;DHT22;62113;45.624;11.700;2023-08-30T09:14:22;21.90;68.10
63013;DHT22;62113;45.624;11.700;2023-08-30T09:16:59;21.90;67.30
63013;DHT22;62113;45.624;11.700;2023-08-30T09:19:26;22.00;68.50
63013;DHT22;62113;45.624;11.700;2023-08-30T09:21:56;22.20;67.80
63013;DHT22;62113;45.624;11.700;2023-08-30T09:24:22;22.10;66.00
63013;DHT22;62113;45.624;11.700;2023-08-30T09:26:53;22.20;68.90
63013;DHT22;62113;45.624;11.700;2023-08-30T09:32:01;22.40;68.20
63013;DHT22;62113;45.624;11.700;2023-08-30T09:34:27;22.60;67.60
63013;DHT22;62113;45.624;11.700;2023-08-30T09:36:53;22.60;67.10
63013;DHT22;62113;45.624;11.700;2023-08-30T09:39:19;22.70;66.70
63013;DHT22;62113;45.624;11.700;2023-08-30T09:41:47;22.70;66.50
63013;DHT22;62113;45.624;11.700;2023-08-30T09:44:15;22.70;66.60
63013;DHT22;62113;45.624;11.700;2023-08-30T09:46:49;22.80;66.60
63013;DHT22;62113;45.624;11.700;2023-08-30T09:49:18;22.90;66.60
63013;DHT22;62113;45.624;11.700;2023-08-30T09:51:46;23.00;66.60
63013;DHT22;62113;45.624;11.700;2023-08-30T09:54:17;23.10;66.40
63013;DHT22;62113;45.624;11.700;2023-08-30T09:56:44;23.10;66.30
63013;DHT22;62113;45.624;11.700;2023-08-30T09:59:11;23.10;65.90
63013;DHT22;62113;45.624;11.700;2023-08-30T10:01:37;23.20;66.10
63013;DHT22;62113;45.624;11.700;2023-08-30T10:04:04;23.20;66.20
63013;DHT22;62113;45.624;11.700;2023-08-30T10:06:30;23.30;66.30
63013;DHT22;62113;45.624;11.700;2023-08-30T10:08:56;23.40;66.50
63013;DHT22;62113;45.624;11.700;2023-08-30T10:11:24;23.50;66.70
63013;DHT22;62113;45.624;11.700;2023-08-30T10:13:51;23.50;66.10
63013;DHT22;62113;45.624;11.700;2023-08-30T10:16:22;23.60;65.70
63013;DHT22;62113;45.624;11.700;2023-08-30T10:21:38;23.70;66.10
63013;DHT22;62113;45.624;11.700;2023-08-30T10:24:06;23.80;65.90
63013;DHT22;62113;45.624;11.700;2023-08-30T10:26:34;23.90;66.10
63013;DHT22;62113;45.624;11.700;2023-08-30T10:29:00;24.00;65.00
63013;DHT22;62113;45.624;11.700;2023-08-30T10:31:27;24.20;64.30
63013;DHT22;62113;45.624;11.700;2023-08-30T10:33:53;24.40;64.00
63013;DHT22;62113;45.624;11.700;2023-08-30T10:36:26;24.50;63.70
63013;DHT22;62113;45.624;11.700;2023-08-30T10:38:55;24.60;63.40
63013;DHT22;62113;45.624;11.700;2023-08-30T10:41:27;24.70;63.70
63013;DHT22;62113;45.624;11.700;2023-08-30T10:43:55;24.80;63.10
63013;DHT22;62113;45.624;11.700;2023-08-30T10:46:34;24.90;61.40
63013;DHT22;62113;45.624;11.700;2023-08-30T10:49:11;25.00;61.00
63013;DHT22;62113;45.624;11.700;2023-08-30T10:51:39;25.10;60.40
63013;DHT22;62113;45.624;11.700;2023-08-30T10:54:16;25.20;61.00
63013;DHT22;62113;45.624;11.700;2023-08-30T10:59:20;25.40;60.70
63013;DHT22;62113;45.624;11.700;2023-08-30T11:01:47;25.40;60.00
63013;DHT22;62113;45.624;11.700;2023-08-30T11:04:14;25.40;60.30
63013;DHT22;62113;45.624;11.700;2023-08-30T11:06:39;25.40;56.10
63013;DHT22;62113;45.624;11.700;2023-08-30T11:09:06;25.30;58.80
63013;DHT22;62113;45.624;11.700;2023-08-30T11:11:34;25.40;59.50
63013;DHT22;62113;45.624;11.700;2023-08-30T11:14:07;25.40;59.30
63013;DHT22;62113;45.624;11.700;2023-08-30T11:16:34;25.50;59.10
63013;DHT22;62113;45.624;11.700;2023-08-30T11:19:01;25.60;59.00
63013;DHT22;62113;45.624;11.700;2023-08-30T11:21:29;25.60;58.10
63013;DHT22;62113;45.624;11.700;2023-08-30T11:23:55;25.70;57.80
63013;DHT22;62113;45.624;11.700;2023-08-30T11:26:21;25.80;58.10
63013;DHT22;62113;45.624;11.700;2023-08-30T11:28:47;25.80;58.60
63013;DHT22;62113;45.624;11.700;2023-08-30T11:31:26;25.90;58.10
63013;DHT22;62113;45.624;11.700;2023-08-30T11:33:56;25.90;57.40
63013;DHT22;62113;45.624;11.700;2023-08-30T11:36:23;26.00;57.20
63013;DHT22;62113;45.624;11.700;2023-08-30T11:38:50;26.00;58.00
63013;DHT22;62113;45.624;11.700;2023-08-30T11:41:16;26.10;57.50
63013;DHT22;62113;45.624;11.700;2023-08-30T11:43:42;26.20;57.60
63013;DHT22;62113;45.624;11.700;2023-08-30T11:46:08;26.20;57.30
63013;DHT22;62113;45.624;11.700;2023-08-30T11:48:34;26.20;56.50
63013;DHT22;62113;45.624;11.700;2023-08-30T11:51:00;26.20;57.20
63013;DHT22;62113;45.624;11.700;2023-08-30T11:53:26;26.30;55.10
63013;DHT22;62113;45.624;11.700;2023-08-30T11:55:53;26.40;56.30
63013;DHT22;62113;45.624;11.700;2023-08-30T11:58:19;26.40;56.00
63013;DHT22;62113;45.624;11.700;2023-08-30T12:00:46;26.50;55.70
63013;DHT22;62113;45.624;11.700;2023-08-30T12:03:14;26.60;55.10
63013;DHT22;62113;45.624;11.700;2023-08-30T12:05:47;26.60;55.80
63013;DHT22;62113;45.624;11.700;2023-08-30T12:08:28;26.70;55.60
63013;DHT22;62113;45.624;11.700;2023-08-30T12:10:55;26.80;54.90
63013;DHT22;62113;45.624;11.700;2023-08-30T12:13:24;26.80;52.80
63013;DHT22;62113;45.624;11.700;2023-08-30T12:15:54;26.90;55.10
63013;DHT22;62113;45.624;11.700;2023-08-30T12:18:27;27.00;54.30
63013;DHT22;62113;45.624;11.700;2023-08-30T12:23:26;27.20;54.60
63013;DHT22;62113;45.624;11.700;2023-08-30T12:26:05;27.20;47.70
63013;DHT22;62113;45.624;11.700;2023-08-30T12:28:33;27.00;49.20
63013;DHT22;62113;45.624;11.700;2023-08-30T12:30:59;26.80;50.10
63013;DHT22;62113;45.624;11.700;2023-08-30T12:33:25;26.70;51.00
63013;DHT22;62113;45.624;11.700;2023-08-30T12:35:54;26.70;53.20
63013;DHT22;62113;45.624;11.700;2023-08-30T12:38:20;26.50;51.70
63013;DHT22;62113;45.624;11.700;2023-08-30T12:40:47;26.40;48.20
63013;DHT22;62113;45.624;11.700;2023-08-30T12:43:14;26.20;49.30
63013;DHT22;62113;45.624;11.700;2023-08-30T12:45:41;26.10;48.70
63013;DHT22;62113;45.624;11.700;2023-08-30T12:48:10;26.00;49.20
63013;DHT22;62113;45.624;11.700;2023-08-30T12:50:37;25.80;47.90
63013;DHT22;62113;45.624;11.700;2023-08-30T12:53:04;25.70;49.20
63013;DHT22;62113;45.624;11.700;2023-08-30T12:55:30;25.60;49.70
63013;DHT22;62113;45.624;11.700;2023-08-30T12:57:55;25.50;49.50
63013;DHT22;62113;45.624;11.700;2023-08-30T13:00:21;25.40;51.80
63013;DHT22;62113;45.624;11.700;2023-08-30T13:02:47;25.40;47.80
63013;DHT22;62113;45.624;11.700;2023-08-30T13:05:13;25.40;50.40
63013;DHT22;62113;45.624;11.700;2023-08-30T13:07:39;25.40;52.00
63013;DHT22;62113;45.624;11.700;2023-08-30T13:10:06;25.50;49.80
63013;DHT22;62113;45.624;11.700;2023-08-30T13:12:31;25.50;50.60
63013;DHT22;62113;45.624;11.700;2023-08-30T13:14:57;25.40;50.70
63013;DHT22;62113;45.624;11.700;2023-08-30T13:17:23;25.30;48.80
63013;DHT22;62113;45.624;11.700;2023-08-30T13:19:48;25.20;50.20
63013;DHT22;62113;45.624;11.700;2023-08-30T13:22:15;25.10;50.60
63013;DHT22;62113;45.624;11.700;2023-08-30T13:24:40;24.90;52.90
63013;DHT22;62113;45.624;11.700;2023-08-30T13:27:06;24.70;51.10
63013;DHT22;62113;45.624;11.700;2023-08-30T13:29:31;24.70;54.60
63013;DHT22;62113;45.624;11.700;2023-08-30T13:31:57;24.60;53.70
63013;DHT22;62113;45.624;11.700;2023-08-30T13:34:22;24.70;54.40
63013;DHT22;62113;45.624;11.700;2023-08-30T13:36:48;24.70;54.60
63013;DHT22;62113;45.624;11.700;2023-08-30T13:39:14;24.60;53.80
63013;DHT22;62113;45.624;11.700;2023-08-30T13:41:40;24.60;53.40
63013;DHT22;62113;45.624;11.700;2023-08-30T13:44:06;24.60;53.60
63013;DHT22;62113;45.624;11.700;2023-08-30T13:46:32;24.60;54.10
63013;DHT22;62113;45.624;11.700;2023-08-30T13:48:58;24.50;53.40
63013;DHT22;62113;45.624;11.700;2023-08-30T13:51:25;24.50;54.60
63013;DHT22;62113;45.624;11.700;2023-08-30T13:53:51;24.50;53.40
63013;DHT22;62113;45.624;11.700;2023-08-30T13:56:20;24.50;52.30
63013;DHT22;62113;45.624;11.700;2023-08-30T13:58:46;24.50;51.80
63013;DHT22;62113;45.624;11.700;2023-08-30T14:01:12;24.40;53.50
63013;DHT22;62113;45.624;11.700;2023-08-30T14:03:38;24.40;52.30
63013;DHT22;62113;45.624;11.700;2023-08-30T14:06:03;24.40;51.80
63013;DHT22;62113;45.624;11.700;2023-08-30T14:08:30;24.50;52.90
63013;DHT22;62113;45.624;11.700;2023-08-30T14:10:55;24.40;52.70
63013;DHT22;62113;45.624;11.700;2023-08-30T14:13:21;24.40;53.50
63013;DHT22;62113;45.624;11.700;2023-08-30T14:15:47;24.50;52.60
63013;DHT22;62113;45.624;11.700;2023-08-30T14:18:14;24.50;53.50
63013;DHT22;62113;45.624;11.700;2023-08-30T14:20:41;24.70;54.00
63013;DHT22;62113;45.624;11.700;2023-08-30T14:23:07;24.60;51.90
63013;DHT22;62113;45.624;11.700;2023-08-30T14:25:33;24.60;52.90
63013;DHT22;62113;45.624;11.700;2023-08-30T14:27:59;24.50;52.90
63013;DHT22;62113;45.624;11.700;2023-08-30T14:30:26;24.60;51.20
63013;DHT22;62113;45.624;11.700;2023-08-30T14:32:52;24.50;51.20
63013;DHT22;62113;45.624;11.700;2023-08-30T14:35:18;24.30;52.10
63013;DHT22;62113;45.624;11.700;2023-08-30T14:37:49;24.20;52.40
63013;DHT22;62113;45.624;11.700;2023-08-30T14:40:15;24.20;52.00
63013;DHT22;62113;45.624;11.700;2023-08-30T14:42:41;24.20;51.20
63013;DHT22;62113;45.624;11.700;2023-08-30T14:45:07;24.00;53.30
63013;DHT22;62113;45.624;11.700;2023-08-30T14:47:33;23.80;52.70
63013;DHT22;62113;45.624;11.700;2023-08-30T14:49:58;23.80;52.90
63013;DHT22;62113;45.624;11.700;2023-08-30T14:52:24;23.80;54.00
63013;DHT22;62113;45.624;11.700;2023-08-30T14:54:50;24.00;54.20
63013;DHT22;62113;45.624;11.700;2023-08-30T14:57:15;24.00;53.50
63013;DHT22;62113;45.624;11.700;2023-08-30T14:59:41;24.00;53.50
63013;DHT22;62113;45.624;11.700;2023-08-30T15:02:06;24.10;51.90
63013;DHT22;62113;45.624;11.700;2023-08-30T15:04:32;24.10;52.20
63013;DHT22;62113;45.624;11.700;2023-08-30T15:06:58;24.20;52.20
63013;DHT22;62113;45.624;11.700;2023-08-30T15:09:23;24.20;51.40
63013;DHT22;62113;45.624;11.700;2023-08-30T15:11:49;24.20;51.30
63013;DHT22;62113;45.624;11.700;2023-08-30T15:14:14;24.20;51.70
63013;DHT22;62113;45.624;11.700;2023-08-30T15:16:40;24.20;52.10
63013;DHT22;62113;45.624;11.700;2023-08-30T15:19:05;24.20;52.30
63013;DHT22;62113;45.624;11.700;2023-08-30T15:21:31;24.20;51.40
63013;DHT22;62113;45.624;11.700;2023-08-30T15:23:57;24.20;51.60
63013;DHT22;62113;45.624;11.700;2023-08-30T15:26:22;24.30;52.00
63013;DHT22;62113;45.624;11.700;2023-08-30T15:28:48;24.30;51.50